• Join FlightAware (Why Join?)
  • Login
  • US Flag 
09:26PM EDT


 

Airport Tracker/Info


-or-


 

Live Flight TrackerFlight Track Log ✈ CTL18 ✈ 30-Apr-2013 ✈ KMBS - KYIP

Flight Track Log - Related Links

Times and Time Zones

All times are in EDT time to prevent confusion due to time zone crossing. See the CTL18 flight status page for this flight to view local times or setup timezone preferences in your user account.

Time Position Orientation Groundspeed Altitude Reporting Facility
EDT Latitude Longitude Course Direction KTS MPH feet Rate Location/Type
07:52PM 43.3904 -84.0180 160° South  Level Estimated
07:53PM 43.3637 -83.9994 153° Southeast  Level FlightAware Approximate
07:54PM 43.3371 -83.9809 153° Southeast  Level FlightAware Approximate
07:55PM 43.3085 -83.9689 160° South  Level Estimated
07:56PM 43.2809 -83.9532 157° South  Level FlightAware Approximate
07:57PM 43.2533 -83.9375 157° South  Level FlightAware Approximate
07:58PM 43.2246 -83.9258 163° South  Level Estimated
07:59PM 43.1964 -83.9124 161° South  Level FlightAware Approximate
08:00PM 43.1682 -83.8990 161° South  Level FlightAware Approximate
08:01PM 43.1399 -83.8856 161° South  Level FlightAware Approximate
08:01PM 42.9739 -83.8039 165° South 160 184 5,100  Level Cleveland Center
08:02PM 43.1113 -83.8741 160° South  Level Estimated
08:02PM 42.9286 -83.7817 160° South 158 182 5,100  Level Cleveland Center
08:03PM 43.0832 -83.8599 160° South  Level FlightAware Approximate
08:03PM 42.8875 -83.7628 161° South 156 180 5,100  Level Cleveland Center
08:04PM 43.0552 -83.8456 160° South  Level FlightAware Approximate
08:04PM 42.8442 -83.7436 162° South 160 184 5,000  Level Cleveland Center
08:05PM 43.0272 -83.8314 160° South  Level FlightAware Approximate
08:05PM 42.7986 -83.7269 165° South 160 184 5,000  Level Cleveland Center
08:06PM 42.9992 -83.8172 160° South  Level FlightAware Approximate
08:06PM 42.7575 -83.7108 164° South 157 181 5,000  Level Cleveland Center
08:07PM 42.7183 -83.6975 166° South 156 180 5,000  Level Cleveland Center
08:08PM 42.6792 -83.6814 163° South 157 181 5,000 -60 Level Cleveland Center
08:09PM 42.6356 -83.6708 170° South 156 180 4,900  Descending Cleveland Center
08:10PM 42.5900 -83.6575 168° South 153 176 5,000  Climbing Cleveland Center
08:11PM 42.5467 -83.6411 164° South 153 176 5,000 -300 Level Cleveland Center
08:12PM 42.5033 -83.6278 167° South 163 188 4,500 -540 Descending Cleveland Center
08:13PM 42.4600 -83.6117 165° South 168 193 4,000 -480 Descending Cleveland Center
08:14PM 42.4103 -83.5922 164° South 156 180 3,600 -300 Descending Cleveland Center
08:15PM 42.3733 -83.5767 163° South 158 182 3,400 -420 Descending Cleveland Center
08:16PM 42.3319 -83.5578 161° South 152 175 2,900 -660 Descending Cleveland Center
08:17PM 42.2911 -83.5306 154° Southeast 147 169 2,100 -780 Descending Cleveland Center
08:18PM 42.2603 -83.5122 156° South 117 135 1,400 -720 Descending Cleveland Center
08:20PM 42.2333 -83.5167 160° South  Level FlightAware Approximate
08:27PM 42.2393 -83.5310 160° South  Level Estimated
08:28PM 42.2393 -83.5310 160° South  Level Estimated